Time;durP1;ratioP1;P1;durP2;ratioP2;P2;SDS_P1;SDS_P2;PMS_P1;PMS_P2;Temp;Humidity;BMP_temperature;BMP_pressure;BME280_temperature;BME280_humidity;BME280_pressure;Samples;Min_cycle;Max_cycle;Signal;HPM_P1;HPM_P2
2022/05/24 00:01:20;;;;;;;1.00;0.38;;;20.10;63.80;;;;;;5156853;27;20038;-73
2022/05/24 00:03:46;;;;;;;1.60;0.65;;;20.00;63.70;;;;;;5138167;27;20039;-71
2022/05/24 00:06:13;;;;;;;1.73;0.43;;;20.00;63.70;;;;;;5156507;27;20053;-72
2022/05/24 00:08:38;;;;;;;1.00;0.40;;;20.00;63.70;;;;;;5138193;27;20037;-72
2022/05/24 00:11:05;;;;;;;1.27;0.40;;;20.00;63.70;;;;;;5138371;27;20113;-72
2022/05/24 00:13:31;;;;;;;1.52;0.60;;;20.00;63.70;;;;;;5138348;27;20038;-73
2022/05/24 00:15:57;;;;;;;1.40;0.50;;;20.00;63.70;;;;;;5138110;27;20144;-72
2022/05/24 00:18:26;;;;;;;0.70;0.40;;;19.90;63.70;;;;;;5138094;27;20126;-72
2022/05/24 00:20:55;;;;;;;1.23;0.43;;;20.00;63.70;;;;;;5138252;27;20128;-72
2022/05/24 00:23:22;;;;;;;1.10;0.43;;;20.00;63.70;;;;;;5137796;27;20110;-72
2022/05/24 00:25:52;;;;;;;1.50;0.70;;;19.90;63.60;;;;;;5156347;27;20603;-72
2022/05/24 00:28:19;;;;;;;2.13;0.93;;;19.90;63.60;;;;;;5137825;27;20046;-72
2022/05/24 00:30:47;;;;;;;2.20;0.77;;;19.90;63.60;;;;;;5156754;27;20509;-72
2022/05/24 00:33:14;;;;;;;1.38;0.55;;;19.90;63.50;;;;;;5156167;27;20035;-72
2022/05/24 00:35:40;;;;;;;1.15;0.60;;;19.90;63.60;;;;;;5137861;27;20047;-73
2022/05/24 00:38:09;;;;;;;2.63;0.70;;;19.90;63.60;;;;;;5137428;27;20043;-71
2022/05/24 00:40:59;;;;;;;1.30;0.85;;;19.90;63.50;;;;;;5156171;27;20034;-72
2022/05/24 00:43:49;;;;;;;1.63;0.60;;;19.90;63.50;;;;;;5154779;27;20447;-72
2022/05/24 00:46:22;;;;;;;1.00;0.50;;;19.90;63.60;;;;;;5137393;27;20486;-72
2022/05/24 00:48:56;;;;;;;2.55;0.70;;;19.80;63.50;;;;;;5137387;27;20053;-73
2022/05/24 00:51:36;;;;;;;2.10;0.70;;;19.90;63.60;;;;;;5137452;27;20520;-72
2022/05/24 00:54:02;;;;;;;1.17;0.55;;;19.90;63.60;;;;;;5155800;27;20035;-72
2022/05/24 01:02:04;;;;;;;2.10;0.73;;;19.80;63.50;;;;;;5130346;27;20852;-72
2022/05/24 01:04:30;;;;;;;1.75;0.60;;;19.80;63.50;;;;;;5130223;27;20092;-72
2022/05/24 01:06:57;;;;;;;1.20;0.40;;;19.80;63.50;;;;;;5129089;28;20498;-72
2022/05/24 01:12:15;;;;;;;0.90;0.50;;;19.80;63.50;;;;;;5130408;27;20402;-70
2022/05/24 01:14:44;;;;;;;1.55;0.65;;;19.80;63.50;;;;;;5129200;28;20088;-72
2022/05/24 01:17:10;;;;;;;1.00;0.50;;;19.70;63.40;;;;;;5128919;28;20043;-71
2022/05/24 01:19:43;;;;;;;0.98;0.40;;;19.80;63.40;;;;;;5128870;28;20042;-67
2022/05/24 01:22:36;;;;;;;1.23;0.50;;;19.70;63.40;;;;;;5128853;28;20067;-72
2022/05/24 01:27:40;;;;;;;1.48;0.30;;;19.70;63.40;;;;;;5130305;27;20918;-71
2022/05/24 01:30:08;;;;;;;0.90;0.38;;;19.70;63.40;;;;;;5130477;27;20036;-72
2022/05/24 01:38:15;;;;;;;0.80;0.40;;;19.70;63.80;;;;;;5128906;28;20050;-71
2022/05/24 01:40:41;;;;;;;1.17;0.40;;;19.70;63.40;;;;;;5129122;28;20058;-72
2022/05/24 01:43:10;;;;;;;1.00;0.50;;;19.70;63.40;;;;;;5130137;27;20439;-71
2022/05/24 01:45:42;;;;;;;1.55;0.50;;;19.70;63.40;;;;;;5128419;28;20069;-72
2022/05/24 01:48:13;;;;;;;1.63;0.40;;;19.70;63.30;;;;;;5129987;27;20110;-72
2022/05/24 01:50:42;;;;;;;1.88;0.60;;;19.70;63.30;;;;;;5128129;28;20043;-71
2022/05/24 01:53:15;;;;;;;1.17;0.57;;;19.70;63.40;;;;;;5129623;28;20059;-73
2022/05/24 01:55:46;;;;;;;1.58;1.02;;;19.70;63.30;;;;;;5128695;28;20054;-72
2022/05/24 01:58:13;;;;;;;;;;;19.60;63.30;;;;;;5128843;27;20072;-66
2022/05/24 02:00:44;;;;;;;4.05;1.00;;;19.60;63.30;;;;;;5129676;28;19916;-71
2022/05/24 02:03:09;;;;;;;1.55;0.73;;;19.60;63.30;;;;;;5129635;28;20081;-72
2022/05/24 02:05:39;;;;;;;3.53;0.93;;;19.60;63.30;;;;;;5128081;28;20078;-72
2022/05/24 02:08:11;;;;;;;1.92;0.90;;;19.60;63.30;;;;;;5128485;27;20456;-71
2022/05/24 02:10:43;;;;;;;1.83;0.95;;;19.60;63.30;;;;;;5128111;28;20040;-71
2022/05/24 02:13:12;;;;;;;1.75;1.10;;;19.60;63.30;;;;;;5128136;28;20487;-71
2022/05/24 02:15:42;;;;;;;2.67;1.40;;;19.60;63.30;;;;;;5129361;28;20072;-72
2022/05/24 02:18:12;;;;;;;1.45;1.02;;;19.60;63.30;;;;;;5128590;28;20054;-69
2022/05/24 02:20:40;;;;;;;2.23;1.50;;;19.60;63.30;;;;;;5129195;28;20360;-71
2022/05/24 02:23:07;;;;;;;1.60;1.50;;;19.60;63.30;;;;;;5129283;28;20265;-72
2022/05/24 02:25:39;;;;;;;1.38;0.70;;;19.50;63.30;;;;;;5128878;28;20043;-72
2022/05/24 02:28:09;;;;;;;1.63;1.17;;;19.60;63.30;;;;;;5129262;28;20039;-70
2022/05/24 02:30:41;;;;;;;2.55;1.77;;;19.50;63.20;;;;;;5127745;28;20063;-71
2022/05/24 02:33:07;;;;;;;1.90;1.50;;;19.50;63.30;;;;;;5129107;28;20122;-70
2022/05/24 02:35:38;;;;;;;1.08;0.80;;;19.50;63.30;;;;;;5127918;28;20043;-71
2022/05/24 02:38:05;;;;;;;2.42;1.30;;;19.50;63.30;;;;;;5102699;28;20039;-70
2022/05/24 02:43:17;;;;;;;1.88;1.33;;;19.50;63.30;;;;;;5113594;28;20126;-73
2022/05/24 02:45:46;;;;;;;2.83;1.00;;;19.50;63.30;;;;;;5115248;28;20144;-71
2022/05/24 02:48:12;;;;;;;1.58;1.13;;;19.50;63.30;;;;;;5114103;28;20061;-72
2022/05/24 02:50:38;;;;;;;1.83;1.45;;;19.50;63.30;;;;;;5114086;28;20088;-72
2022/05/24 02:53:03;;;;;;;3.15;1.75;;;19.50;63.30;;;;;;5113629;28;20453;-72
2022/05/24 02:55:30;;;;;;;1.90;1.00;;;19.50;63.30;;;;;;5113727;28;20130;-71
2022/05/24 02:57:55;;;;;;;2.13;1.27;;;19.50;63.30;;;;;;5113763;28;20078;-71
2022/05/24 03:00:24;;;;;;;2.22;1.20;;;19.50;63.30;;;;;;5113617;28;20462;-71
2022/05/24 03:02:50;;;;;;;2.20;1.60;;;19.50;63.40;;;;;;5114934;28;20455;-71
2022/05/24 03:05:17;;;;;;;2.03;1.58;;;19.50;63.40;;;;;;5113720;28;20035;-71
2022/05/24 03:10:30;;;;;;;3.05;1.50;;;19.50;63.40;;;;;;5113339;28;20201;-67
2022/05/24 03:15:46;;;;;;;1.27;0.90;;;19.50;63.40;;;;;;5114444;28;20108;-71
2022/05/24 03:18:15;;;;;;;3.30;1.25;;;19.50;63.30;;;;;;5114604;28;20047;-71
2022/05/24 03:20:41;;;;;;;2.67;1.55;;;19.50;63.40;;;;;;5114477;28;20032;-71
2022/05/24 03:23:07;;;;;;;2.45;1.67;;;19.40;63.40;;;;;;5113023;28;20460;-72
2022/05/24 03:25:34;;;;;;;2.05;1.50;;;19.40;63.30;;;;;;5113043;28;20055;-72
2022/05/24 03:28:01;;;;;;;1.80;1.40;;;19.40;63.30;;;;;;5113258;28;20108;-71
2022/05/24 03:30:28;;;;;;;1.17;1.00;;;19.40;63.40;;;;;;5113275;28;20103;-72
2022/05/24 03:32:54;;;;;;;1.92;1.08;;;19.40;63.40;;;;;;5113139;28;20039;-71
2022/05/24 03:35:20;;;;;;;1.92;1.50;;;19.40;63.40;;;;;;5114253;28;20028;-72
2022/05/24 03:37:49;;;;;;;2.17;1.35;;;19.40;63.40;;;;;;5114088;28;20075;-72
2022/05/24 03:40:15;;;;;;;2.00;1.38;;;19.40;63.30;;;;;;5112726;28;20044;-72
2022/05/24 03:42:41;;;;;;;2.95;1.73;;;19.40;63.40;;;;;;5112637;28;20040;-71
2022/05/24 03:45:09;;;;;;;2.05;1.20;;;19.40;63.30;;;;;;5114019;28;20039;-71
2022/05/24 03:47:38;;;;;;;1.75;1.58;;;19.40;63.30;;;;;;5113913;28;20047;-71
2022/05/24 03:50:06;;;;;;;2.65;1.50;;;19.40;63.30;;;;;;5112880;28;20040;-71
2022/05/24 03:52:32;;;;;;;2.33;1.45;;;19.40;63.30;;;;;;5112740;28;20036;-70
2022/05/24 03:54:57;;;;;;;1.85;1.10;;;19.40;63.30;;;;;;5112734;28;20431;-71
2022/05/24 04:00:10;;;;;;;2.03;1.45;;;19.40;63.30;;;;;;5112211;28;20126;-68
2022/05/24 04:02:36;;;;;;;2.15;1.40;;;19.40;63.30;;;;;;5113763;28;20047;-72
2022/05/24 04:05:02;;;;;;;2.42;0.95;;;19.40;63.30;;;;;;5113555;28;20039;-71
2022/05/24 04:07:28;;;;;;;1.95;0.88;;;19.40;63.20;;;;;;5113396;28;20039;-71
2022/05/24 04:09:53;;;;;;;2.13;1.75;;;19.40;63.20;;;;;;5112928;28;20048;-70
2022/05/24 04:12:19;;;;;;;2.50;1.20;;;19.40;63.20;;;;;;5112187;28;20122;-71
2022/05/24 04:14:46;;;;;;;3.10;1.30;;;19.40;63.20;;;;;;5112384;28;20506;-71
2022/05/24 04:17:12;;;;;;;2.47;1.50;;;19.40;63.20;;;;;;5112074;28;20039;-71
2022/05/24 04:19:38;;;;;;;1.95;1.45;;;19.40;63.20;;;;;;5112125;28;20170;-73
2022/05/24 04:22:03;;;;;;;3.13;1.45;;;19.40;63.20;;;;;;5111995;28;20048;-71
2022/05/24 04:24:29;;;;;;;1.35;1.20;;;19.40;63.10;;;;;;5111965;28;20073;-67
2022/05/24 04:26:55;;;;;;;2.42;1.33;;;19.40;63.20;;;;;;5111514;28;20116;-70
2022/05/24 04:29:20;;;;;;;1.77;0.98;;;19.40;63.10;;;;;;5111748;28;20127;-71
2022/05/24 04:31:46;;;;;;;2.88;1.45;;;19.40;63.10;;;;;;5112015;28;20071;-71
2022/05/24 04:34:12;;;;;;;4.10;1.50;;;19.40;63.10;;;;;;5112037;28;20492;-70
2022/05/24 04:36:37;;;;;;;2.58;1.48;;;19.40;63.00;;;;;;5112845;28;20095;-70
2022/05/24 04:39:03;;;;;;;2.05;1.02;;;19.40;63.00;;;;;;5112918;28;20047;-70
2022/05/24 04:44:14;;;;;;;3.15;1.75;;;19.40;63.00;;;;;;5112719;28;20050;-66
2022/05/24 04:47:12;;;;;;;3.50;2.38;;;19.30;63.00;;;;;;5111441;28;20399;-70
2022/05/24 04:49:25;;;;;;;2.42;1.45;;;19.40;62.90;;;;;;5111611;28;20050;-71
2022/05/24 04:51:54;;;;;;;4.13;2.15;;;19.40;62.90;;;;;;5111414;28;20039;-65
2022/05/24 04:54:21;;;;;;;2.85;1.90;;;19.30;62.90;;;;;;5111479;28;20032;-70
2022/05/24 04:56:46;;;;;;;1.88;1.25;;;19.40;62.90;;;;;;5111794;28;20053;-71
2022/05/24 04:59:13;;;;;;;2.63;1.55;;;19.40;62.90;;;;;;5111864;28;20028;-67
2022/05/24 05:01:39;;;;;;;2.35;1.90;;;19.40;62.80;;;;;;5112632;28;20047;-66
2022/05/24 05:04:05;;;;;;;2.63;1.98;;;19.40;62.80;;;;;;5111235;28;20054;-70
2022/05/24 05:06:30;;;;;;;4.35;2.22;;;19.40;62.70;;;;;;5112679;28;20067;-70
2022/05/24 05:08:56;;;;;;;4.03;2.58;;;19.40;62.70;;;;;;5112689;28;20027;-70
2022/05/24 05:11:22;;;;;;;3.20;1.67;;;19.40;62.60;;;;;;5111489;28;20051;-70
2022/05/24 05:13:47;;;;;;;2.63;1.63;;;19.40;62.50;;;;;;5111483;28;20118;-69
2022/05/24 05:16:13;;;;;;;2.58;2.20;;;19.40;62.40;;;;;;5111137;28;20044;-70
2022/05/24 05:18:38;;;;;;;3.25;1.67;;;19.40;62.40;;;;;;5111434;28;20088;-70
2022/05/24 05:21:04;;;;;;;2.50;1.77;;;19.40;62.30;;;;;;5112232;28;20471;-71
2022/05/24 05:23:30;;;;;;;3.50;1.88;;;19.40;62.30;;;;;;5111932;28;20043;-73
2022/05/24 05:25:56;;;;;;;2.78;2.20;;;19.40;62.30;;;;;;5108654;28;20406;-70
2022/05/24 05:28:22;;;;;;;4.47;1.70;;;19.40;62.20;;;;;;5110987;28;20172;-73
2022/05/24 05:33:33;;;;;;;3.00;1.92;;;19.50;62.30;;;;;;5124950;28;20176;-66
2022/05/24 05:36:00;;;;;;;3.88;2.10;;;19.50;62.10;;;;;;5109672;28;20039;-72
2022/05/24 05:38:31;;;;;;;3.90;2.35;;;19.50;62.50;;;;;;5108053;28;20039;-72
2022/05/24 05:40:58;;;;;;;3.33;2.17;;;19.50;62.40;;;;;;5104588;28;20032;-72
2022/05/24 05:43:24;;;;;;;4.90;2.45;;;19.50;62.30;;;;;;5107629;28;20483;-65
2022/05/24 05:45:52;;;;;;;4.97;2.55;;;19.50;62.30;;;;;;5109042;28;20036;-74
2022/05/24 05:48:18;;;;;;;5.55;3.17;;;19.50;62.10;;;;;;5108478;28;20081;-74
2022/05/24 05:50:44;;;;;;;4.55;2.72;;;19.50;62.00;;;;;;5107551;28;20040;-74
2022/05/24 05:53:09;;;;;;;5.65;2.83;;;19.50;61.80;;;;;;5108244;28;20035;-75
2022/05/24 05:55:37;;;;;;;4.53;2.60;;;19.50;61.70;;;;;;5107958;28;20429;-66
2022/05/24 05:58:03;;;;;;;4.90;3.03;;;19.50;61.50;;;;;;5109398;28;20406;-74
2022/05/24 06:00:35;;;;;;;3.63;2.92;;;19.50;61.40;;;;;;5107836;28;20040;-74
2022/05/24 06:03:01;;;;;;;3.45;2.22;;;19.60;61.30;;;;;;5107587;28;20035;-74
2022/05/24 06:05:27;;;;;;;5.07;3.40;;;19.50;61.30;;;;;;5091673;28;20040;-71
2022/05/24 06:07:54;;;;;;;3.80;2.83;;;19.60;61.40;;;;;;5092033;28;20055;-75
2022/05/24 06:10:20;;;;;;;4.65;3.90;;;19.60;61.40;;;;;;5102260;28;20032;-75
2022/05/24 06:12:51;;;;;;;6.07;3.38;;;19.60;61.50;;;;;;5102423;28;20071;-68
2022/05/24 06:15:17;;;;;;;5.20;3.08;;;19.60;61.70;;;;;;5104796;28;20055;-75
2022/05/24 06:17:44;;;;;;;4.13;2.85;;;19.60;61.60;;;;;;5104859;28;20066;-75
2022/05/24 06:20:10;;;;;;;3.33;2.75;;;19.60;61.70;;;;;;5105272;28;20046;-74
2022/05/24 06:22:38;;;;;;;6.57;2.97;;;19.70;61.70;;;;;;5106951;28;20123;-74
2022/05/24 06:25:05;;;;;;;4.57;3.00;;;19.70;61.60;;;;;;5109496;28;20131;-77
2022/05/24 06:27:31;;;;;;;3.17;2.60;;;19.70;61.70;;;;;;5108014;28;20127;-73
2022/05/24 06:29:56;;;;;;;5.10;2.67;;;19.70;61.80;;;;;;5109673;28;20048;-73
2022/05/24 06:32:22;;;;;;;3.92;2.33;;;19.70;61.60;;;;;;5082467;28;20594;-74
2022/05/24 06:34:48;;;;;;;3.88;2.47;;;19.70;61.60;;;;;;5089847;27;21068;-76
2022/05/24 06:37:15;;;;;;;4.07;2.38;;;19.70;61.50;;;;;;5093188;27;20127;-70
2022/05/24 06:39:41;;;;;;;4.75;2.10;;;19.70;61.50;;;;;;5092009;27;20044;-70
2022/05/24 06:42:07;;;;;;;4.45;2.65;;;19.80;61.60;;;;;;5107356;27;20040;-74
2022/05/24 06:44:33;;;;;;;2.55;2.03;;;19.70;61.40;;;;;;5094510;27;20126;-74
2022/05/24 06:46:58;;;;;;;7.13;2.63;;;19.80;61.40;;;;;;5092403;27;20044;-71
2022/05/24 06:49:24;;;;;;;8.27;3.30;;;19.80;61.50;;;;;;5091744;28;20048;-70
2022/05/24 06:51:50;;;;;;;7.25;3.22;;;19.80;61.80;;;;;;5095281;27;20138;-67
2022/05/24 06:54:16;;;;;;;5.13;3.17;;;19.80;62.00;;;;;;5090929;27;20051;-70
2022/05/24 06:56:41;;;;;;;6.03;3.90;;;19.90;62.20;;;;;;5096676;27;20568;-68
2022/05/24 07:04:38;;;;;;;6.22;2.20;;;20.00;62.30;;;;;;5094684;27;20044;-73
2022/05/24 07:07:05;;;;;;;6.10;2.47;;;20.00;62.30;;;;;;5088591;27;20044;-72
2022/05/24 07:09:31;;;;;;;2.83;1.63;;;20.00;62.30;;;;;;5089903;28;20047;-71
2022/05/24 07:11:58;;;;;;;3.42;1.90;;;20.00;62.20;;;;;;5086044;27;20128;-67
2022/05/24 07:14:24;;;;;;;5.70;2.65;;;20.10;62.30;;;;;;5091471;27;20031;-71
2022/05/24 07:16:51;;;;;;;6.43;3.47;;;20.10;62.40;;;;;;5089539;27;20043;-72
2022/05/24 07:19:18;;;;;;;3.40;2.55;;;20.10;62.50;;;;;;5092894;27;20050;-72
2022/05/24 07:21:44;;;;;;;9.57;2.88;;;20.10;62.60;;;;;;5086890;27;20048;-71
2022/05/24 07:24:10;;;;;;;9.27;2.92;;;20.10;62.50;;;;;;5086145;28;20240;-71
2022/05/24 07:26:36;;;;;;;8.45;4.05;;;20.10;62.50;;;;;;5094166;28;20055;-72
2022/05/24 07:29:02;;;;;;;7.93;3.53;;;20.10;62.50;;;;;;5084708;27;20059;-72
2022/05/24 07:31:30;;;;;;;8.70;3.85;;;20.10;62.60;;;;;;5091774;27;20047;-73
2022/05/24 07:33:59;;;;;;;5.47;4.18;;;20.10;62.70;;;;;;5089406;27;20062;-74
2022/05/24 07:36:25;;;;;;;5.45;3.90;;;20.20;62.90;;;;;;5086513;27;20051;-73
2022/05/24 07:38:51;;;;;;;7.43;4.05;;;20.10;62.90;;;;;;5108592;27;20688;-73
2022/05/24 07:46:48;;;;;;;8.43;4.72;;;20.10;63.10;;;;;;5093256;28;20048;-67
2022/05/24 07:49:13;;;;;;;6.18;4.50;;;20.10;63.00;;;;;;5105412;27;20071;-72
2022/05/24 07:51:39;;;;;;;5.13;4.43;;;20.10;63.10;;;;;;5087598;28;20067;-74
2022/05/24 07:54:05;;;;;;;9.02;4.75;;;20.10;63.10;;;;;;5087750;28;20105;-74
2022/05/24 07:56:30;;;;;;;4.95;4.38;;;20.20;63.20;;;;;;5089395;27;20445;-75
2022/05/24 07:58:56;;;;;;;4.90;4.32;;;20.20;63.10;;;;;;5091928;28;20070;-74
2022/05/24 08:01:23;;;;;;;8.70;4.65;;;20.20;63.00;;;;;;5106082;27;20150;-74
2022/05/24 08:03:50;;;;;;;13.98;5.43;;;20.30;62.90;;;;;;5089349;28;20119;-71
2022/05/24 08:06:17;;;;;;;7.35;5.50;;;20.30;62.80;;;;;;5084770;27;21576;-76
2022/05/24 08:08:43;;;;;;;7.43;4.97;;;20.30;62.70;;;;;;5085158;27;20062;-70
2022/05/24 08:11:12;;;;;;;10.60;5.18;;;20.40;62.60;;;;;;5092455;28;20047;-78
2022/05/24 08:13:38;;;;;;;10.00;5.32;;;20.40;62.40;;;;;;5089329;28;20068;-76
2022/05/24 08:16:06;;;;;;;7.13;3.67;;;20.50;61.90;;;;;;5092069;27;20043;-73
2022/05/24 08:18:32;;;;;;;6.55;3.90;;;20.50;61.40;;;;;;5087645;28;20046;-72
2022/05/24 08:20:58;;;;;;;8.15;4.72;;;20.60;61.40;;;;;;5090648;27;20441;-71
2022/05/24 08:23:27;;;;;;;5.80;3.97;;;20.60;61.30;;;;;;5087841;28;20035;-71
2022/05/24 08:25:54;;;;;;;8.00;4.40;;;20.70;61.10;;;;;;5093115;28;20109;-73
2022/05/24 08:28:20;;;;;;;9.13;4.78;;;20.80;60.90;;;;;;5092530;27;20035;-72
2022/05/24 08:30:46;;;;;;;5.30;4.10;;;20.80;60.60;;;;;;5107502;27;20044;-76
2022/05/24 08:33:14;;;;;;;4.00;2.50;;;20.80;60.40;;;;;;5091294;28;20044;-76
2022/05/24 08:35:40;;;;;;;6.25;2.63;;;20.90;60.10;;;;;;5091445;27;20032;-74
2022/05/24 08:38:07;;;;;;;7.40;2.95;;;20.90;59.80;;;;;;5092062;28;20399;-75
2022/05/24 08:40:36;;;;;;;8.75;2.20;;;20.90;59.60;;;;;;5108168;27;20062;-75
2022/05/24 08:43:42;;;;;;;5.88;1.85;;;21.00;59.20;;;;;;5095600;28;20177;-75
2022/05/24 08:49:07;;;;;;;4.55;1.50;;;21.20;58.40;;;;;;5083139;28;20056;-71
2022/05/24 08:51:57;;;;;;;2.65;1.30;;;21.20;57.90;;;;;;5084768;28;20040;-67
2022/05/24 08:54:38;;;;;;;3.13;1.00;;;21.20;57.70;;;;;;5105503;27;20059;-70
2022/05/24 08:57:08;;;;;;;6.50;1.25;;;21.30;57.70;;;;;;5089446;28;20050;-74
2022/05/24 08:59:37;;;;;;;3.58;1.00;;;21.50;57.70;;;;;;5103948;27;20054;-75
2022/05/24 09:02:06;;;;;;;3.17;0.80;;;21.60;57.50;;;;;;5089967;27;20094;-74
2022/05/24 09:04:37;;;;;;;3.58;1.30;;;21.70;57.20;;;;;;5088493;28;20313;-72
2022/05/24 09:07:12;;;;;;;5.07;1.52;;;21.60;57.10;;;;;;5107824;27;20096;-73
2022/05/24 09:15:52;;;;;;;4.18;1.30;;;21.60;57.10;;;;;;5086349;27;20471;-73
2022/05/24 09:18:57;;;;;;;6.50;1.10;;;21.50;57.50;;;;;;5080473;28;20075;-68
2022/05/24 09:21:26;;;;;;;5.57;0.90;;;21.50;57.80;;;;;;5085861;28;20968;-74
2022/05/24 09:32:44;;;;;;;4.43;0.63;;;21.50;58.30;;;;;;5065016;28;21058;-70
2022/05/24 09:38:08;;;;;;;7.03;0.95;;;21.40;58.10;;;;;;5095223;27;20436;-71
2022/05/24 09:43:33;;;;;;;3.53;0.70;;;21.50;57.60;;;;;;5071144;27;20576;-73
2022/05/24 09:49:24;;;;;;;8.95;1.35;;;21.60;57.60;;;;;;5073875;27;20444;-70
2022/05/24 09:51:55;;;;;;;4.15;1.00;;;21.70;57.40;;;;;;5077972;28;20055;-70
2022/05/24 09:54:26;;;;;;;4.70;0.75;;;21.70;57.20;;;;;;5081079;28;20072;-70
2022/05/24 09:57:13;;;;;;;4.32;0.95;;;21.60;57.20;;;;;;5079659;28;21096;-73
2022/05/24 09:59:41;;;;;;;4.53;0.80;;;21.70;57.30;;;;;;5081883;28;20052;-75
2022/05/24 10:02:26;;;;;;;3.78;0.82;;;21.60;57.30;;;;;;5080889;28;20054;-71
2022/05/24 10:04:52;;;;;;;2.28;0.40;;;21.60;57.20;;;;;;5075363;28;20185;-71
2022/05/24 10:10:15;;;;;;;4.55;1.00;;;21.70;57.40;;;;;;5063400;28;20430;-74
2022/05/24 10:21:13;;;;;;;1.85;0.50;;;21.50;57.80;;;;;;5003160;27;4219561;-76
2022/05/24 10:24:10;;;;;;;3.53;0.50;;;21.40;57.40;;;;;;5121728;27;20046;-76
2022/05/24 10:30:01;;;;;;;3.50;0.50;;;21.40;57.50;;;;;;5107869;27;20407;-76
2022/05/24 10:41:15;;;;;;;0.85;0.30;;;21.40;56.80;;;;;;5118286;27;20459;-76
2022/05/24 10:44:03;;;;;;;2.85;0.38;;;21.50;56.70;;;;;;5092282;28;20039;-76
2022/05/24 10:49:26;;;;;;;6.38;0.63;;;21.50;56.10;;;;;;5094375;27;20892;-75
2022/05/24 10:52:00;;;;;;;3.47;0.30;;;21.50;56.50;;;;;;5099206;28;20046;-74
2022/05/24 11:00:15;;;;;;;2.00;0.20;;;21.40;57.20;;;;;;5102779;27;20486;-70
2022/05/24 11:05:27;;;;;;;4.82;0.30;;;21.30;56.70;;;;;;5110478;27;1171117;-72
2022/05/24 11:08:01;;;;;;;3.60;0.30;;;21.30;57.30;;;;;;5117494;27;20286;-74
2022/05/24 11:10:31;;;;;;;2.33;0.45;;;21.30;57.50;;;;;;5118621;27;20066;-72
2022/05/24 11:13:03;;;;;;;2.63;0.30;;;21.20;57.60;;;;;;5117051;27;20622;-71
2022/05/24 11:15:51;;;;;;;6.38;0.40;;;21.20;57.80;;;;;;5116915;27;20115;-72
2022/05/24 11:18:21;;;;;;;2.97;0.40;;;21.20;58.30;;;;;;5116632;27;20087;-71
2022/05/24 11:21:25;;;;;;;2.73;0.30;;;21.20;58.30;;;;;;5129826;27;20070;-68
2022/05/24 11:24:01;;;;;;;2.38;0.30;;;21.20;58.50;;;;;;5113667;27;20114;-73
2022/05/24 11:26:31;;;;;;;3.47;0.32;;;21.10;58.60;;;;;;5111687;27;20035;-73
2022/05/24 11:29:11;;;;;;;2.47;0.40;;;21.10;58.90;;;;;;5114993;27;20047;-73
2022/05/24 11:39:44;;;;;;;2.97;0.63;;;21.10;58.90;;;;;;5068975;27;20985;-67
2022/05/24 11:42:40;;;;;;;6.03;0.63;;;21.10;59.40;;;;;;5073177;28;20492;-68
2022/05/24 11:45:45;;;;;;;5.63;0.50;;;21.10;59.70;;;;;;5069180;28;20568;-69
2022/05/24 11:50:53;;;;;;;2.88;0.50;;;21.00;59.70;;;;;;5111799;27;20828;-68
2022/05/24 12:15:25;;;;;;;2.08;0.35;;;21.20;60.60;;;;;;5102030;27;20459;-68
2022/05/24 12:18:12;;;;;;;4.15;0.40;;;21.20;59.50;;;;;;5092846;28;20054;-72
2022/05/24 12:23:38;;;;;;;3.53;0.35;;;21.30;59.50;;;;;;5090732;27;20467;-66
2022/05/24 12:28:52;;;;;;;3.60;0.60;;;21.30;59.40;;;;;;5090307;27;21129;-70
2022/05/24 12:36:45;;;;;;;2.67;0.22;;;21.40;59.60;;;;;;5050117;28;20474;-67
2022/05/24 12:39:14;;;;;;;4.10;0.20;;;21.40;59.30;;;;;;5047417;28;20064;-68
2022/05/24 12:41:59;;;;;;;6.05;0.60;;;21.50;59.40;;;;;;5066604;28;20198;-69
2022/05/24 12:44:28;;;;;;;2.30;0.30;;;21.50;59.60;;;;;;5048928;28;20823;-74
2022/05/24 12:46:57;;;;;;;3.22;0.30;;;21.50;59.40;;;;;;5051377;28;20131;-71
2022/05/24 12:49:26;;;;;;;2.58;0.40;;;21.50;59.40;;;;;;5048149;28;20049;-71
2022/05/24 12:52:00;;;;;;;4.85;0.50;;;21.60;59.60;;;;;;5051696;28;20044;-67
2022/05/24 12:57:17;;;;;;;4.95;0.40;;;21.60;59.60;;;;;;5055934;28;20480;-68
2022/05/24 12:59:57;;;;;;;4.78;0.50;;;21.60;59.60;;;;;;5064215;28;20044;-71
2022/05/24 13:07:59;;;;;;;6.25;0.65;;;21.70;59.50;;;;;;5123598;27;1154482;-69
2022/05/24 13:10:37;;;;;;;6.43;0.30;;;21.70;58.70;;;;;;5127543;27;20055;-70
2022/05/24 13:13:13;;;;;;;4.20;0.70;;;21.70;58.20;;;;;;5121110;27;20081;-73
2022/05/24 13:15:44;;;;;;;3.80;0.30;;;21.80;58.00;;;;;;5124880;27;20035;-70
2022/05/24 13:18:16;;;;;;;3.20;0.40;;;21.70;57.80;;;;;;5126525;27;20050;-70
2022/05/24 13:34:33;;;;;;;5.45;0.35;;;21.70;56.40;;;;;;5148899;27;20071;-70
2022/05/24 13:37:01;;;;;;;4.82;0.68;;;21.70;55.90;;;;;;5119398;28;20040;-71
2022/05/24 13:39:53;;;;;;;2.72;0.17;;;21.70;55.70;;;;;;5139265;27;20140;-71
2022/05/24 13:42:34;;;;;;;3.08;0.22;;;21.70;54.40;;;;;;5118060;28;20062;-70
2022/05/24 13:45:18;;;;;;;0.75;0.20;;;21.60;54.00;;;;;;5118331;28;20046;-72
2022/05/24 13:47:48;;;;;;;2.25;0.20;;;21.60;53.50;;;;;;5118915;27;20031;-71
2022/05/24 13:55:55;;;;;;;4.30;0.22;;;21.70;53.60;;;;;;5091473;28;20455;-66
2022/05/24 13:58:34;;;;;;;3.75;0.20;;;21.70;53.00;;;;;;5088908;28;20048;-69
2022/05/24 14:01:04;;;;;;;1.63;0.30;;;21.70;53.20;;;;;;5092565;28;20093;-69
2022/05/24 14:03:47;;;;;;;1.95;0.30;;;21.80;53.50;;;;;;5094246;28;20094;-68
2022/05/24 14:06:22;;;;;;;3.47;0.20;;;21.80;53.30;;;;;;5092200;28;20058;-68
2022/05/24 14:08:51;;;;;;;4.50;0.20;;;21.80;53.30;;;;;;5080614;28;20032;-68
2022/05/24 14:11:24;;;;;;;0.82;0.15;;;21.80;52.80;;;;;;5086477;28;20035;-67
2022/05/24 14:13:51;;;;;;;0.90;0.10;;;21.80;52.60;;;;;;5085979;28;20037;-68
2022/05/24 14:16:18;;;;;;;3.30;0.17;;;21.80;52.70;;;;;;5082800;28;20068;-68
2022/05/24 14:18:44;;;;;;;4.50;0.20;;;21.90;52.60;;;;;;5082493;28;20032;-67
2022/05/24 14:21:10;;;;;;;1.80;0.20;;;21.90;52.60;;;;;;5083279;28;20407;-66
2022/05/24 14:23:36;;;;;;;2.95;0.28;;;21.90;52.50;;;;;;5082065;28;20048;-65
2022/05/24 14:26:04;;;;;;;4.47;0.20;;;21.90;52.50;;;;;;5079054;28;20044;-68
2022/05/24 14:28:29;;;;;;;1.17;0.20;;;21.90;52.40;;;;;;5082356;28;20105;-67
2022/05/24 14:30:55;;;;;;;1.77;0.10;;;21.90;52.40;;;;;;5072827;28;20036;-69
2022/05/24 14:33:22;;;;;;;2.47;0.38;;;21.90;52.40;;;;;;5078792;28;20041;-68
2022/05/24 14:35:49;;;;;;;2.92;0.22;;;21.80;52.30;;;;;;5081561;28;20654;-69
2022/05/24 14:38:16;;;;;;;2.17;0.20;;;21.90;52.20;;;;;;5083806;28;20040;-69
2022/05/24 14:40:45;;;;;;;2.47;0.20;;;21.90;52.20;;;;;;5091518;28;20044;-70
2022/05/24 14:43:18;;;;;;;2.67;0.40;;;21.80;52.10;;;;;;5084291;28;20041;-67
2022/05/24 14:45:43;;;;;;;2.22;0.20;;;21.80;52.10;;;;;;5074394;28;20075;-68
2022/05/24 14:48:09;;;;;;;0.52;0.10;;;21.80;52.20;;;;;;5079107;28;20075;-68
2022/05/24 14:50:37;;;;;;;3.78;0.20;;;21.90;52.30;;;;;;5084285;28;20518;-67
2022/05/24 14:53:05;;;;;;;1.75;0.10;;;21.80;52.10;;;;;;5085103;28;20040;-68
2022/05/24 14:55:31;;;;;;;1.52;0.20;;;21.80;52.10;;;;;;5085108;28;20102;-67
2022/05/24 14:57:57;;;;;;;1.05;0.20;;;21.80;52.10;;;;;;5092857;28;20036;-67
2022/05/24 15:00:25;;;;;;;0.70;0.10;;;21.80;52.20;;;;;;5085717;28;20040;-67
2022/05/24 15:02:51;;;;;;;0.47;0.10;;;21.80;52.10;;;;;;5082865;28;20115;-67
2022/05/24 15:05:17;;;;;;;0.75;0.10;;;21.80;52.40;;;;;;5081710;28;20048;-68
2022/05/24 15:16:09;;;;;;;0.85;0.10;;;21.70;52.00;;;;;;5070697;28;20067;-67
2022/05/24 15:18:34;;;;;;;0.60;0.10;;;21.70;52.00;;;;;;5072785;28;20476;-67
2022/05/24 15:21:00;;;;;;;0.38;0.10;;;21.70;52.00;;;;;;5071900;28;20074;-67
2022/05/24 15:23:30;;;;;;;1.15;0.10;;;21.70;52.20;;;;;;5073198;28;20176;-67
2022/05/24 15:26:03;;;;;;;0.47;0.10;;;21.80;52.20;;;;;;5072310;28;20683;-67
2022/05/24 15:28:32;;;;;;;0.55;0.10;;;21.70;52.10;;;;;;5072007;28;20047;-68
2022/05/24 15:31:00;;;;;;;0.65;0.20;;;21.70;52.00;;;;;;5072916;28;20392;-67
2022/05/24 15:33:26;;;;;;;0.88;0.10;;;21.70;51.90;;;;;;5074102;28;20071;-67
2022/05/24 15:35:52;;;;;;;1.10;0.10;;;21.70;52.00;;;;;;5073237;28;20275;-68
2022/05/24 15:38:18;;;;;;;0.50;0.10;;;21.70;52.00;;;;;;5073606;28;20029;-67
2022/05/24 15:40:44;;;;;;;0.20;0.10;;;21.70;52.00;;;;;;5071861;28;20044;-68
2022/05/24 15:43:13;;;;;;;1.20;0.10;;;21.70;52.00;;;;;;5055372;28;20028;-67
2022/05/24 15:45:39;;;;;;;1.83;0.20;;;21.70;52.10;;;;;;5073596;28;20080;-67
2022/05/24 15:48:05;;;;;;;0.65;0.17;;;21.70;52.10;;;;;;5071654;28;20044;-67
2022/05/24 15:50:31;;;;;;;0.95;0.10;;;21.70;52.10;;;;;;5071981;28;20042;-67
2022/05/24 15:53:01;;;;;;;0.73;0.10;;;21.70;52.80;;;;;;5071862;28;20119;-67
2022/05/24 15:55:28;;;;;;;1.33;0.10;;;21.70;52.10;;;;;;5073153;28;20061;-67
2022/05/24 15:57:57;;;;;;;0.55;0.20;;;21.70;52.10;;;;;;5071596;28;20492;-67
2022/05/24 16:00:24;;;;;;;0.32;0.10;;;21.60;52.10;;;;;;5071351;28;20037;-68
2022/05/24 16:02:51;;;;;;;0.32;0.10;;;21.60;52.00;;;;;;5071640;28;20032;-67
2022/05/24 16:10:51;;;;;;;1.27;0.20;;;21.60;51.60;;;;;;5072847;28;20368;-67